createdAt,value
2018-11-04T00:00:42.098Z,82.14
2018-11-04T00:01:52.181Z,81.95
2018-11-04T00:03:02.082Z,82.05
2018-11-04T00:04:11.972Z,82.52
2018-11-04T00:05:21.581Z,82.52
2018-11-04T00:06:31.475Z,82.33
2018-11-04T00:07:41.646Z,82.33
2018-11-04T00:08:51.956Z,82.24
2018-11-04T00:10:01.837Z,82.24
2018-11-04T00:11:11.452Z,81.95
2018-11-04T00:12:20.560Z,82.24
2018-11-04T00:13:30.715Z,82.14
2018-11-04T00:14:40.611Z,82.05
2018-11-04T00:15:49.995Z,82.33
2018-11-04T00:16:59.600Z,81.95
2018-11-04T00:18:09.755Z,82.14
2018-11-04T00:19:19.365Z,82.24
2018-11-04T00:20:29.252Z,82.24
2018-11-04T00:21:39.453Z,82.14
2018-11-04T00:22:49.343Z,80.91
2018-11-04T00:23:59.674Z,81.38
2018-11-04T00:25:09.470Z,81.29
2018-11-04T00:26:19.625Z,80.72
2018-11-04T00:27:29.229Z,80.91
2018-11-04T00:28:38.354Z,80.44
2018-11-04T00:29:48.107Z,80.82
2018-11-04T00:30:58.441Z,80.82
2018-11-04T00:32:08.598Z,80.82
2018-11-04T00:33:18.749Z,80.72
2018-11-04T00:34:28.363Z,80.63
2018-11-04T00:35:38.270Z,80.72
2018-11-04T00:36:47.609Z,80.63
2018-11-04T00:37:57.488Z,80.63
2018-11-04T00:39:07.100Z,80.91
2018-11-04T00:40:16.725Z,80.34
2018-11-04T00:41:26.383Z,80.63
2018-11-04T00:42:36.265Z,80.63
2018-11-04T00:43:46.428Z,80.06
2018-11-04T00:44:56.304Z,80.15
2018-11-04T00:46:06.519Z,80.53
2018-11-04T00:47:16.452Z,80.44
2018-11-04T00:48:26.716Z,80.34
2018-11-04T00:49:37.275Z,80.44
2018-11-04T00:50:47.441Z,80.44
2018-11-04T00:51:57.597Z,80.53
2018-11-04T00:53:06.681Z,80.15
2018-11-04T00:54:16.840Z,79.96
2018-11-04T00:55:26.996Z,80.06
2018-11-04T00:56:37.151Z,80.15
2018-11-04T00:57:47.035Z,80.53
2018-11-04T00:58:56.649Z,80.25
2018-11-04T01:00:06.538Z,80.25
2018-11-04T01:01:16.422Z,79.21
2018-11-04T01:02:26.319Z,78.54
2018-11-04T01:03:36.483Z,77.69
2018-11-04T01:04:46.388Z,76.93
2018-11-04T01:05:56.007Z,76.84
2018-11-04T01:07:05.620Z,76.27
2018-11-04T01:08:15.512Z,75.79
2018-11-04T01:09:25.460Z,74.56
2018-11-04T01:10:35.345Z,75.04
2018-11-04T01:11:45.521Z,74.85
2018-11-04T01:12:55.571Z,74.75
2018-11-04T01:14:05.180Z,74.37
2018-11-04T01:15:15.066Z,74.47
2018-11-04T01:16:24.725Z,74.47
2018-11-04T01:17:34.338Z,74.18
2018-11-04T01:18:43.395Z,73.9
2018-11-04T01:19:53.330Z,74.18
2018-11-04T01:21:03.002Z,73.99
2018-11-04T01:22:13.024Z,73.52
2018-11-04T01:23:22.636Z,73.61
2018-11-04T01:24:32.448Z,73.52
2018-11-04T01:25:42.520Z,73.24
2018-11-04T01:26:52.400Z,73.14
2018-11-04T01:28:02.342Z,73.33
2018-11-04T01:29:12.318Z,72.48
2018-11-04T01:30:22.246Z,72.77
2018-11-04T01:31:33.220Z,72.48
2018-11-04T01:32:43.393Z,72.48
2018-11-04T01:33:53.324Z,72.1
2018-11-04T01:35:03.216Z,72
2018-11-04T01:36:12.824Z,72.1
2018-11-04T01:37:22.438Z,71.91
2018-11-04T01:38:32.323Z,72
2018-11-04T01:39:42.533Z,71.81
2018-11-04T01:40:52.445Z,71.81
2018-11-04T01:42:02.341Z,71.81
2018-11-04T01:43:11.948Z,72.19
2018-11-04T01:44:21.880Z,72.29
2018-11-04T01:45:31.488Z,71.44
2018-11-04T01:46:41.090Z,71.81
2018-11-04T01:47:50.698Z,71.62
2018-11-04T01:49:00.580Z,70.87
2018-11-04T01:50:10.469Z,70.68
2018-11-04T01:51:20.349Z,70.97
2018-11-04T01:52:30.225Z,70.68
2018-11-04T01:53:39.842Z,70.68
2018-11-04T01:54:49.194Z,70.58
2018-11-04T01:55:59.348Z,70.87
2018-11-04T01:57:09.281Z,70.49
2018-11-04T01:58:19.432Z,70.58
2018-11-04T01:59:29.587Z,70.39
2018-11-04T02:00:39.215Z,70.49
2018-11-04T02:01:49.108Z,70.39
2018-11-04T02:02:58.723Z,70.3
2018-11-04T02:04:08.612Z,70.01
2018-11-04T02:05:18.778Z,70.01
2018-11-04T02:06:28.665Z,70.01
2018-11-04T02:07:38.563Z,70.3
2018-11-04T02:08:48.730Z,69.82
2018-11-04T02:09:57.790Z,69.45
2018-11-04T02:11:07.671Z,69.35
2018-11-04T02:12:17.550Z,69.54
2018-11-04T02:13:27.428Z,69.64
2018-11-04T02:14:37.311Z,69.64
2018-11-04T02:15:47.211Z,69.92
2018-11-04T02:16:57.369Z,70.3
2018-11-04T02:18:06.976Z,70.3
2018-11-04T02:19:16.587Z,69.82
2018-11-04T02:20:26.521Z,70.39
2018-11-04T02:21:36.137Z,70.3
2018-11-04T02:22:46.298Z,69.82
2018-11-04T02:23:56.452Z,69.54
2018-11-04T02:25:06.345Z,69.73
2018-11-04T02:26:16.559Z,70.01
2018-11-04T02:27:26.445Z,69.92
2018-11-04T02:28:36.061Z,70.2
2018-11-04T02:29:46.208Z,70.39
2018-11-04T02:30:55.267Z,70.87
2018-11-04T02:32:05.457Z,70.01
2018-11-04T02:33:14.793Z,70.3
2018-11-04T02:34:24.403Z,70.39
2018-11-04T02:35:34.293Z,69.92
2018-11-04T02:36:43.914Z,70.3
2018-11-04T02:37:54.085Z,70.2
2018-11-04T02:39:03.698Z,69.82
2018-11-04T02:40:13.322Z,70.3
2018-11-04T02:41:22.652Z,69.92
2018-11-04T02:42:32.535Z,69.45
2018-11-04T02:43:42.198Z,69.54
2018-11-04T02:44:52.080Z,69.07
2018-11-04T02:46:01.701Z,69.35
2018-11-04T02:47:11.329Z,69.35
2018-11-04T02:48:21.488Z,68.98
2018-11-04T02:49:31.094Z,69.17
2018-11-04T02:50:41.278Z,68.88
2018-11-04T02:51:51.166Z,69.07
2018-11-04T02:53:01.046Z,69.26
2018-11-04T02:54:10.653Z,69.64
2018-11-04T02:55:20.823Z,70.11
2018-11-04T02:56:30.729Z,69.35
2018-11-04T02:57:40.879Z,69.73
2018-11-04T02:58:51.035Z,70.39
2018-11-04T03:00:00.919Z,69.82
2018-11-04T03:01:11.081Z,69.64
2018-11-04T03:02:20.962Z,69.64
2018-11-04T03:03:30.852Z,69.82
2018-11-04T03:04:40.470Z,69.45
2018-11-04T03:05:50.087Z,69.64
2018-11-04T03:07:00.257Z,69.35
2018-11-04T03:08:09.865Z,69.64
2018-11-04T03:09:19.211Z,69.45
2018-11-04T03:10:29.406Z,69.64
2018-11-04T03:11:39.298Z,70.2
2018-11-04T03:12:48.907Z,70.11
2018-11-04T03:13:58.243Z,69.82
2018-11-04T03:15:08.398Z,69.26
2018-11-04T03:16:18.027Z,69.73
2018-11-04T03:17:28.186Z,69.73
2018-11-04T03:18:37.854Z,70.2
2018-11-04T03:19:47.464Z,69.17
2018-11-04T03:20:57.388Z,68.69
2018-11-04T03:22:07.278Z,68.5
2018-11-04T03:23:17.178Z,67.74
2018-11-04T03:24:26.873Z,68.12
2018-11-04T03:25:37.297Z,67.46
2018-11-04T03:26:47.450Z,67.83
2018-11-04T03:27:57.614Z,67.36
2018-11-04T03:29:07.236Z,67.27
2018-11-04T03:30:17.118Z,66.8
2018-11-04T03:31:27.000Z,66.22
2018-11-04T03:32:36.907Z,66.51
2018-11-04T03:33:47.099Z,66.32
2018-11-04T03:34:57.284Z,66.51
2018-11-04T03:36:07.163Z,66.22
2018-11-04T03:37:16.785Z,66.51
2018-11-04T03:38:26.947Z,65.94
2018-11-04T03:39:37.099Z,66.13
2018-11-04T03:40:46.708Z,65.66
2018-11-04T03:41:56.329Z,65.37
2018-11-04T03:43:05.955Z,65.66
2018-11-04T03:44:15.849Z,66.32
2018-11-04T03:45:25.460Z,66.03
2018-11-04T03:46:35.341Z,66.03
2018-11-04T03:47:44.454Z,66.03
2018-11-04T03:48:54.063Z,66.22
2018-11-04T03:50:03.398Z,66.32
2018-11-04T03:51:13.021Z,66.41
2018-11-04T03:52:22.905Z,66.51
2018-11-04T03:53:32.789Z,66.41
2018-11-04T03:54:42.955Z,66.8
2018-11-04T03:55:52.835Z,66.99
2018-11-04T03:57:02.716Z,67.18
2018-11-04T03:58:12.057Z,67.08
2018-11-04T03:59:21.675Z,66.7
2018-11-04T04:00:31.313Z,66.6
2018-11-04T04:01:41.207Z,66.89
2018-11-04T04:02:50.831Z,67.65
2018-11-04T04:04:00.434Z,67.27
2018-11-04T04:05:10.042Z,66.89
2018-11-04T04:06:19.930Z,66.89
2018-11-04T04:07:29.812Z,66.99
2018-11-04T04:08:39.962Z,67.18
2018-11-04T04:09:49.578Z,67.55
2018-11-04T04:10:59.470Z,67.27
2018-11-04T04:12:08.804Z,67.36
2018-11-04T04:13:18.428Z,68.02
2018-11-04T04:14:28.035Z,67.93
2018-11-04T04:15:38.208Z,68.69
2018-11-04T04:16:48.108Z,68.69
2018-11-04T04:17:58.019Z,68.79
2018-11-04T04:19:07.643Z,68.79
2018-11-04T04:20:17.245Z,69.26
2018-11-04T04:21:26.591Z,69.54
2018-11-04T04:22:36.742Z,69.82
2018-11-04T04:23:46.624Z,70.2
2018-11-04T04:24:56.792Z,70.3
2018-11-04T04:26:06.684Z,70.01
2018-11-04T04:27:16.842Z,70.2
2018-11-04T04:28:26.787Z,70.68
2018-11-04T04:29:36.676Z,70.39
2018-11-04T04:30:46.559Z,70.78
2018-11-04T04:31:56.185Z,70.78
2018-11-04T04:33:06.075Z,70.78
2018-11-04T04:34:15.683Z,70.78
2018-11-04T04:35:25.569Z,71.06
2018-11-04T04:36:35.478Z,71.06
2018-11-04T04:37:45.408Z,70.97
2018-11-04T04:38:55.291Z,71.15
2018-11-04T04:40:04.953Z,70.78
2018-11-04T04:41:15.112Z,71.06
2018-11-04T04:42:25.267Z,70.97
2018-11-04T04:43:34.601Z,70.87
2018-11-04T04:44:44.218Z,69.92
2018-11-04T04:45:54.104Z,69.17
2018-11-04T04:47:03.983Z,69.26
2018-11-04T04:48:14.141Z,69.54
2018-11-04T04:49:24.018Z,69.64
2018-11-04T04:50:33.632Z,69.64
2018-11-04T04:51:43.248Z,69.26
2018-11-04T04:52:53.136Z,70.3
2018-11-04T04:54:03.023Z,69.64
2018-11-04T04:55:13.250Z,69.64
2018-11-04T04:56:23.409Z,70.49
2018-11-04T04:57:33.565Z,70.11
2018-11-04T04:58:43.765Z,70.39
2018-11-04T04:59:53.650Z,70.2
2018-11-04T05:01:03.532Z,70.39
2018-11-04T05:02:13.415Z,69.64
2018-11-04T05:03:23.319Z,70.39
2018-11-04T05:04:33.200Z,69.92
2018-11-04T05:05:42.543Z,69.92
2018-11-04T05:06:52.436Z,69.92
2018-11-04T05:08:02.584Z,70.36
2018-11-04T05:09:11.929Z,70.26
2018-11-04T05:10:22.123Z,70.11
2018-11-04T05:11:32.292Z,70.26
2018-11-04T05:12:41.912Z,70.45
2018-11-04T05:13:51.800Z,70.49
2018-11-04T05:15:01.756Z,70.64
2018-11-04T05:16:11.394Z,70.36
2018-11-04T05:17:21.283Z,70.07
2018-11-04T05:18:31.444Z,69.89
2018-11-04T05:19:41.054Z,70.26
2018-11-04T05:20:51.208Z,70.17
2018-11-04T05:22:01.103Z,69.89
2018-11-04T05:23:11.260Z,70.36
2018-11-04T05:24:21.142Z,70.26
2018-11-04T05:25:30.475Z,70.26
2018-11-04T05:26:40.094Z,69.6
2018-11-04T05:27:50.265Z,69.6
2018-11-04T05:29:00.160Z,69.79
2018-11-04T05:30:10.318Z,69.22
2018-11-04T05:31:20.482Z,69.07
2018-11-04T05:32:30.364Z,69.41
2018-11-04T05:33:39.692Z,68.98
2018-11-04T05:34:49.569Z,68.79
2018-11-04T05:35:59.724Z,68.84
2018-11-04T05:37:09.623Z,68.94
2018-11-04T05:38:19.449Z,68.56
2018-11-04T05:39:29.929Z,68.46
2018-11-04T05:40:39.815Z,68.46
2018-11-04T05:41:49.424Z,68.21
2018-11-04T05:42:59.576Z,68.18
2018-11-04T05:44:09.457Z,67.8
2018-11-04T05:45:19.612Z,68.02
2018-11-04T05:46:29.501Z,68.18
2018-11-04T05:47:39.108Z,67.9
2018-11-04T05:48:48.999Z,68.02
2018-11-04T05:49:58.888Z,68.08
2018-11-04T05:51:08.498Z,67.83
2018-11-04T05:52:18.649Z,67.9
2018-11-04T05:53:27.996Z,67.9
2018-11-04T05:54:38.213Z,67.52
2018-11-04T05:55:48.093Z,66.95
2018-11-04T05:56:58.252Z,67.43
2018-11-04T05:58:08.414Z,66.86
2018-11-04T05:59:18.295Z,67.24
2018-11-04T06:00:28.459Z,66.28
2018-11-04T06:01:37.518Z,66.19
2018-11-04T06:02:47.124Z,66.76
2018-11-04T06:03:56.729Z,67.33
2018-11-04T06:05:06.339Z,67.24
2018-11-04T06:06:15.399Z,67.9
2018-11-04T06:07:25.290Z,68.18
2018-11-04T06:08:35.181Z,68.37
2018-11-04T06:09:45.341Z,69.03
2018-11-04T06:10:54.677Z,69.41
2018-11-04T06:12:04.563Z,69.03
2018-11-04T06:13:14.164Z,69.22
2018-11-04T06:14:24.056Z,69.41
2018-11-04T06:15:34.202Z,69.22
2018-11-04T06:16:44.088Z,69.41
2018-11-04T06:17:54.239Z,69.32
2018-11-04T06:19:04.179Z,69.7
2018-11-04T06:20:14.061Z,69.89
2018-11-04T06:21:23.685Z,70.17
2018-11-04T06:22:33.564Z,70.26
2018-11-04T06:23:43.724Z,70.36
2018-11-04T06:24:53.327Z,70.26
2018-11-04T06:26:03.209Z,70.26
2018-11-04T06:27:12.817Z,70.36
2018-11-04T06:28:22.991Z,70.64
2018-11-04T06:29:32.867Z,70.64
2018-11-04T06:30:42.762Z,70.36
2018-11-04T06:31:52.366Z,70.45
2018-11-04T06:33:02.544Z,69.98
2018-11-04T06:34:12.704Z,70.45
2018-11-04T06:35:22.856Z,70.64
2018-11-04T06:36:32.471Z,70.55
2018-11-04T06:37:42.356Z,70.36
2018-11-04T06:38:52.244Z,69.79
2018-11-04T06:40:01.867Z,70.17
2018-11-04T06:41:11.857Z,70.07
2018-11-04T06:42:21.922Z,69.79
2018-11-04T06:43:31.294Z,70.26
2018-11-04T06:44:41.440Z,69.98
2018-11-04T06:45:51.320Z,70.07
2018-11-04T06:47:00.716Z,69.79
2018-11-04T06:48:10.838Z,69.7
2018-11-04T06:49:20.733Z,69.89
2018-11-04T06:50:30.898Z,69.13
2018-11-04T06:51:40.791Z,68.94
2018-11-04T06:52:50.397Z,68.75
2018-11-04T06:54:00.275Z,68.65
2018-11-04T06:55:09.613Z,67.52
2018-11-04T06:56:19.495Z,66
2018-11-04T06:57:29.380Z,65.63
2018-11-04T06:58:39.256Z,64.87
2018-11-04T06:59:49.217Z,64.77
2018-11-04T07:00:59.681Z,64.52
2018-11-04T07:02:09.017Z,64.3
2018-11-04T07:03:19.242Z,64.68
2018-11-04T07:04:28.578Z,64.23
2018-11-04T07:05:38.191Z,63.76
2018-11-04T07:06:48.066Z,63.48
2018-11-04T07:07:58.216Z,62.72
2018-11-04T07:09:08.193Z,62.15
2018-11-04T07:10:18.336Z,61.3
2018-11-04T07:11:28.230Z,60.64
2018-11-04T07:12:38.111Z,60.54
2018-11-04T07:13:47.997Z,60.54
2018-11-04T07:14:57.602Z,60.25
2018-11-04T07:16:07.211Z,60.16
2018-11-04T07:17:16.820Z,59.88
2018-11-04T07:18:26.703Z,59.41
2018-11-04T07:19:36.580Z,58.84
2018-11-04T07:20:46.204Z,58.84
2018-11-04T07:21:56.366Z,58.36
2018-11-04T07:23:06.587Z,58.26
2018-11-04T07:24:16.478Z,57.98
2018-11-04T07:25:26.436Z,58.17
2018-11-04T07:26:36.227Z,57.42
2018-11-04T07:27:46.113Z,57.7
2018-11-04T07:28:55.990Z,56.85
2018-11-04T07:30:05.925Z,56.75
2018-11-04T07:31:16.096Z,56.75
2018-11-04T07:32:25.438Z,56.46
2018-11-04T07:33:35.057Z,56.56
2018-11-04T07:34:44.671Z,56.94
2018-11-04T07:35:54.005Z,56.27
2018-11-04T07:37:03.886Z,56.75
2018-11-04T07:38:13.495Z,56.46
2018-11-04T07:39:23.098Z,56.37
2018-11-04T07:40:32.709Z,56.85
2018-11-04T07:41:42.368Z,56.75
2018-11-04T07:42:51.982Z,56.09
2018-11-04T07:44:02.185Z,55.9
2018-11-04T07:45:12.274Z,56.09
2018-11-04T07:46:22.427Z,55.99
2018-11-04T07:47:32.362Z,55.99
2018-11-04T07:48:41.976Z,55.9
2018-11-04T07:49:51.314Z,56.09
2018-11-04T07:51:01.471Z,55.33
2018-11-04T07:52:11.090Z,55.8
2018-11-04T07:53:21.245Z,55.9
2018-11-04T07:54:31.125Z,55.24
2018-11-04T07:55:41.082Z,55.33
2018-11-04T07:56:50.624Z,54.76
2018-11-04T07:58:00.845Z,54.95
2018-11-04T07:59:11.013Z,54.67
2018-11-04T08:00:21.189Z,54.57
2018-11-04T08:01:30.804Z,54.19
2018-11-04T08:02:40.960Z,54.19
2018-11-04T08:03:51.174Z,53.53
2018-11-04T08:05:01.207Z,53.72
2018-11-04T08:06:10.539Z,52.96
2018-11-04T08:07:20.421Z,52.68
2018-11-04T08:08:30.035Z,52.2
2018-11-04T08:09:39.639Z,51.82
2018-11-04T08:10:49.524Z,51.45
2018-11-04T08:11:59.425Z,51.35
2018-11-04T08:13:09.041Z,51.45
2018-11-04T08:14:18.651Z,51.16
2018-11-04T08:15:28.813Z,51.16
2018-11-04T08:16:38.422Z,50.49
2018-11-04T08:17:48.575Z,50.9
2018-11-04T08:18:58.726Z,50.52
2018-11-04T08:20:08.888Z,49.86
2018-11-04T08:21:18.673Z,49.76
2018-11-04T08:22:28.843Z,49.38
2018-11-04T08:23:38.450Z,49.38
2018-11-04T08:24:48.329Z,48.91
2018-11-04T08:25:58.217Z,48.91
2018-11-04T08:27:07.830Z,48.44
2018-11-04T08:28:17.212Z,48.44
2018-11-04T08:29:27.383Z,48.91
2018-11-04T08:30:37.556Z,48.63
2018-11-04T08:31:47.447Z,48.44
2018-11-04T08:32:56.510Z,48.25
2018-11-04T08:34:06.406Z,47.68
2018-11-04T08:35:16.566Z,47.87
2018-11-04T08:36:26.448Z,47.77
2018-11-04T08:37:36.607Z,47.49
2018-11-04T08:38:46.770Z,47.58
2018-11-04T08:39:57.081Z,47.3
2018-11-04T08:41:06.664Z,47.42
2018-11-04T08:42:16.549Z,47.11
2018-11-04T08:43:25.879Z,47.04
2018-11-04T08:44:35.781Z,46.28
2018-11-04T08:45:45.193Z,46.37
2018-11-04T08:46:56.048Z,46.37
2018-11-04T08:48:05.934Z,46.47
2018-11-04T08:49:16.093Z,45.9
2018-11-04T08:50:25.713Z,46.28
2018-11-04T08:51:35.056Z,45.52
2018-11-04T08:52:45.454Z,45.52
2018-11-04T08:53:55.343Z,45.71
2018-11-04T08:55:04.977Z,45.81
2018-11-04T08:56:14.869Z,45.52
2018-11-04T08:57:24.763Z,45.43
2018-11-04T08:58:34.472Z,45.24
2018-11-04T08:59:44.728Z,45.05
2018-11-04T09:00:54.395Z,45.14
2018-11-04T09:02:04.284Z,45.52
2018-11-04T09:03:13.897Z,45.52
2018-11-04T09:04:23.537Z,45.45
2018-11-04T09:05:33.146Z,45.52
2018-11-04T09:06:42.572Z,45.17
2018-11-04T09:07:52.738Z,45.36
2018-11-04T09:09:02.688Z,45.36
2018-11-04T09:10:12.576Z,45.54
2018-11-04T09:11:22.464Z,45.36
2018-11-04T09:12:32.347Z,45.26
2018-11-04T09:13:41.959Z,44.79
2018-11-04T09:14:51.572Z,44.6
2018-11-04T09:16:00.913Z,44.6
2018-11-04T09:17:10.812Z,44.6
2018-11-04T09:18:20.711Z,44.4
2018-11-04T09:19:30.865Z,44.79
2018-11-04T09:20:40.474Z,44.88
2018-11-04T09:21:50.841Z,45.26
2018-11-04T09:23:00.046Z,45.47
2018-11-04T09:24:09.938Z,45.64
2018-11-04T09:25:20.112Z,45.92
2018-11-04T09:26:30.048Z,46.21
2018-11-04T09:27:39.667Z,46.33
2018-11-04T09:28:49.565Z,46.51
2018-11-04T09:29:59.205Z,46.9
2018-11-04T09:31:08.553Z,46.8
2018-11-04T09:32:17.900Z,47.09
2018-11-04T09:33:27.243Z,47.28
2018-11-04T09:34:37.186Z,46.99
2018-11-04T09:35:47.765Z,47.18
2018-11-04T09:36:57.924Z,47.18
2018-11-04T09:38:07.275Z,46.9
2018-11-04T09:39:17.187Z,46.99
2018-11-04T09:40:27.361Z,47.09
2018-11-04T09:41:36.702Z,46.99
2018-11-04T09:42:45.786Z,47.18
2018-11-04T09:43:55.411Z,47.09
2018-11-04T09:45:04.762Z,47.18
2018-11-04T09:46:14.402Z,47.09
2018-11-04T09:47:23.752Z,47.56
2018-11-04T09:48:32.883Z,48.41
2018-11-04T09:49:42.777Z,48.54
2018-11-04T09:50:52.205Z,48.35
2018-11-04T09:52:01.823Z,48.91
2018-11-04T09:53:10.898Z,48.35
2018-11-04T09:54:20.517Z,49.77
2018-11-04T09:55:30.128Z,50.34
2018-11-04T09:56:39.883Z,49.68
2018-11-04T09:57:49.468Z,49.96
2018-11-04T09:58:59.374Z,50.05
2018-11-04T10:00:09.541Z,49.87
2018-11-04T10:01:19.438Z,50.34
2018-11-04T10:02:29.329Z,50.24
2018-11-04T10:03:39.229Z,49.96
2018-11-04T10:04:48.305Z,50.24
2018-11-04T10:05:57.932Z,50.81
2018-11-04T10:07:07.949Z,50.34
2018-11-04T10:08:17.387Z,51.1
2018-11-04T10:09:27.029Z,51.01
2018-11-04T10:10:36.102Z,51.57
2018-11-04T10:11:45.993Z,51.39
2018-11-04T10:12:55.944Z,51.39
2018-11-04T10:14:05.556Z,51.79
2018-11-04T10:15:15.446Z,52.36
2018-11-04T10:16:25.819Z,51.89
2018-11-04T10:17:35.821Z,51.89
2018-11-04T10:18:46.225Z,51.7
2018-11-04T10:19:57.593Z,51.89
2018-11-04T10:21:11.236Z,52.08
2018-11-04T10:22:21.816Z,52.45
2018-11-04T10:23:31.707Z,52.74
2018-11-04T10:24:41.045Z,53.22
2018-11-04T10:25:50.668Z,52.93
2018-11-04T10:27:00.557Z,53.12
2018-11-04T10:28:10.290Z,53.12
2018-11-04T10:29:20.182Z,53.78
2018-11-04T10:30:30.472Z,53.5
2018-11-04T10:31:40.469Z,53.69
2018-11-04T10:32:50.082Z,53.03
2018-11-04T10:34:00.251Z,52.74
2018-11-04T10:35:10.143Z,53.41
2018-11-04T10:36:20.101Z,54.07
2018-11-04T10:37:30.475Z,53.12
2018-11-04T10:38:40.639Z,53.91
2018-11-04T10:39:50.520Z,54.77
2018-11-04T10:41:00.411Z,55.52
2018-11-04T10:42:10.094Z,55.33
2018-11-04T10:43:20.544Z,55.24
2018-11-04T10:44:30.457Z,54.67
2018-11-04T10:45:40.384Z,54.77
2018-11-04T10:46:49.729Z,54.96
2018-11-04T10:47:59.619Z,55.62
2018-11-04T10:49:09.328Z,55.15
2018-11-04T10:50:18.350Z,55.71
2018-11-04T10:51:28.511Z,56
2018-11-04T10:52:38.406Z,57.62
2018-11-04T10:53:48.305Z,58.18
2018-11-04T10:54:58.467Z,58.09
2018-11-04T10:56:08.076Z,58.09
2018-11-04T10:57:17.705Z,58.18
2018-11-04T10:58:27.325Z,57.9
2018-11-04T10:59:37.219Z,58
2018-11-04T11:00:47.402Z,58.57
2018-11-04T11:01:57.569Z,59.14
2018-11-04T11:03:06.909Z,59.33
2018-11-04T11:04:16.821Z,59.52
2018-11-04T11:05:26.479Z,59.9
2018-11-04T11:06:36.365Z,59.61
2018-11-04T11:07:46.259Z,59.71
2018-11-04T11:08:55.335Z,59.9
2018-11-04T11:10:04.959Z,59.52
2018-11-04T11:11:14.923Z,59.93
2018-11-04T11:12:24.269Z,59.74
2018-11-04T11:13:33.888Z,60.12
2018-11-04T11:14:43.506Z,59.93
2018-11-04T11:15:53.699Z,60.02
2018-11-04T11:17:03.316Z,60.02
2018-11-04T11:18:13.483Z,60.41
2018-11-04T11:19:23.100Z,60.5
2018-11-04T11:20:33.265Z,60.6
2018-11-04T11:21:43.448Z,60.97
2018-11-04T11:22:54.200Z,60.78
2018-11-04T11:24:05.090Z,60.88
2018-11-04T11:25:14.985Z,62.02
2018-11-04T11:26:25.173Z,62.12
2018-11-04T11:27:35.069Z,62.02
2018-11-04T11:28:44.741Z,61.55
2018-11-04T11:29:54.710Z,61.93
2018-11-04T11:31:04.447Z,61.93
2018-11-04T11:32:14.341Z,62.59
2018-11-04T11:33:24.232Z,62.88
2018-11-04T11:34:33.860Z,63.83
2018-11-04T11:35:43.502Z,63.07
2018-11-04T11:36:53.133Z,63.26
2018-11-04T11:38:02.880Z,63.45
2018-11-04T11:39:13.460Z,63.45
2018-11-04T11:40:22.815Z,63.45
2018-11-04T11:41:32.707Z,63.96
2018-11-04T11:42:42.601Z,65
2018-11-04T11:43:52.766Z,64.4
2018-11-04T11:45:03.151Z,64.4
2018-11-04T11:46:12.588Z,63.96
2018-11-04T11:47:22.505Z,64.34
2018-11-04T11:48:32.684Z,64.53
2018-11-04T11:49:42.599Z,65.1
2018-11-04T11:50:52.766Z,64.81
2018-11-04T11:52:02.391Z,64.9
2018-11-04T11:53:12.003Z,65.67
2018-11-04T11:54:21.618Z,65.38
2018-11-04T11:55:31.226Z,65.77
2018-11-04T11:56:41.122Z,66.05
2018-11-04T11:57:51.300Z,66.33
2018-11-04T11:59:00.920Z,66.81
2018-11-04T12:00:10.665Z,66.53
2018-11-04T12:01:20.014Z,66.81
2018-11-04T12:02:29.091Z,66.62
2018-11-04T12:03:39.260Z,66.81
2018-11-04T12:04:48.875Z,66.81
2018-11-04T12:05:59.063Z,66.81
2018-11-04T12:07:09.064Z,66.62
2018-11-04T12:08:18.730Z,67
2018-11-04T12:09:28.350Z,66.81
2018-11-04T12:10:38.244Z,66.81
2018-11-04T12:11:48.136Z,67.19
2018-11-04T12:12:58.030Z,67
2018-11-04T12:14:07.919Z,67.47
2018-11-04T12:15:17.532Z,67
2018-11-04T12:16:27.147Z,67.57
2018-11-04T12:17:36.894Z,67.19
2018-11-04T12:18:46.965Z,67.38
2018-11-04T12:19:56.586Z,67.38
2018-11-04T12:21:06.211Z,67.57
2018-11-04T12:22:16.104Z,67.76
2018-11-04T12:23:26.270Z,67.76
2018-11-04T12:24:36.603Z,67.76
2018-11-04T12:25:46.781Z,67.76
2018-11-04T12:26:56.668Z,68.43
2018-11-04T12:28:06.001Z,68.24
2018-11-04T12:29:15.898Z,68.24
2018-11-04T12:30:25.789Z,68.27
2018-11-04T12:31:35.409Z,68.05
2018-11-04T12:32:45.300Z,68.43
2018-11-04T12:33:55.460Z,68.05
2018-11-04T12:35:04.822Z,68.65
2018-11-04T12:36:14.602Z,68.65
2018-11-04T12:37:24.221Z,68.75
2018-11-04T12:38:33.844Z,68.75
2018-11-04T12:39:44.022Z,68.75
2018-11-04T12:40:53.924Z,68.56
2018-11-04T12:42:04.093Z,68.56
2018-11-04T12:43:13.981Z,68.56
2018-11-04T12:44:23.601Z,68.84
2018-11-04T12:45:33.433Z,69.23
2018-11-04T12:46:43.451Z,69.23
2018-11-04T12:47:53.346Z,69.7
2018-11-04T12:49:03.239Z,69.6
2018-11-04T12:50:13.142Z,69.99
2018-11-04T12:51:23.035Z,70.08
2018-11-04T12:52:32.658Z,70.75
2018-11-04T12:53:42.278Z,70.37
2018-11-04T12:54:51.626Z,70.65
2018-11-04T12:56:01.299Z,70.08
2018-11-04T12:57:11.467Z,70.56
2018-11-04T12:58:21.092Z,70.47
2018-11-04T12:59:30.725Z,70.56
2018-11-04T13:00:40.651Z,70.37
2018-11-04T13:01:50.906Z,70.47
2018-11-04T13:03:01.009Z,70.56
2018-11-04T13:04:10.901Z,70.56
2018-11-04T13:05:20.823Z,70.56
2018-11-04T13:06:30.985Z,70.56
2018-11-04T13:07:41.159Z,70.27
2018-11-04T13:08:51.065Z,70.47
2018-11-04T13:10:01.030Z,70.47
2018-11-04T13:11:11.193Z,70.47
2018-11-04T13:12:20.603Z,70.47
2018-11-04T13:13:30.496Z,70.27
2018-11-04T13:14:40.387Z,70.65
2018-11-04T13:15:50.004Z,70.37
2018-11-04T13:16:59.899Z,70.56
2018-11-04T13:18:09.785Z,70.47
2018-11-04T13:19:19.944Z,70.47
2018-11-04T13:20:29.582Z,70.56
2018-11-04T13:21:39.471Z,70.56
2018-11-04T13:22:49.095Z,70.94
2018-11-04T13:23:58.994Z,71.03
2018-11-04T13:25:08.345Z,70.75
2018-11-04T13:26:18.248Z,71.13
2018-11-04T13:27:28.144Z,70.75
2018-11-04T13:28:38.044Z,70.84
2018-11-04T13:29:47.689Z,70.75
2018-11-04T13:30:57.035Z,70.94
2018-11-04T13:32:06.680Z,70.75
2018-11-04T13:33:16.845Z,70.94
2018-11-04T13:34:26.462Z,71.22
2018-11-04T13:35:36.356Z,70.78
2018-11-04T13:36:46.520Z,71.07
2018-11-04T13:37:56.155Z,70.88
2018-11-04T13:39:05.776Z,71.26
2018-11-04T13:40:14.843Z,70.88
2018-11-04T13:41:24.740Z,71.17
2018-11-04T13:42:34.088Z,70.97
2018-11-04T13:43:44.260Z,71.26
2018-11-04T13:44:54.167Z,71.07
2018-11-04T13:46:03.788Z,71.17
2018-11-04T13:47:13.688Z,71.17
2018-11-04T13:48:23.849Z,71.07
2018-11-04T13:49:33.653Z,71.17
2018-11-04T13:50:43.694Z,70.97
2018-11-04T13:51:53.871Z,71.26
2018-11-04T13:53:03.771Z,71.07
2018-11-04T13:54:12.848Z,71.17
2018-11-04T13:55:22.464Z,71.07
2018-11-04T13:56:31.810Z,71.17
2018-11-04T13:57:41.148Z,71.26
2018-11-04T13:58:51.311Z,71.03
2018-11-04T14:00:01.203Z,71.03
2018-11-04T14:01:11.095Z,71.07
2018-11-04T14:02:20.989Z,71.17
2018-11-04T14:03:30.880Z,71.07
2018-11-04T14:04:40.493Z,71.07
2018-11-04T14:05:50.113Z,70.84
2018-11-04T14:06:59.742Z,71.07
2018-11-04T14:08:09.636Z,71.26
2018-11-04T14:09:18.974Z,71.07
2018-11-04T14:10:28.309Z,70.88
2018-11-04T14:11:37.933Z,70.78
2018-11-04T14:12:47.719Z,70.78
2018-11-04T14:13:57.914Z,71.26
2018-11-04T14:15:07.532Z,70.59
2018-11-04T14:16:16.608Z,70.78
2018-11-04T14:17:26.770Z,70.69
2018-11-04T14:18:36.671Z,71.03
2018-11-04T14:19:46.574Z,70.78
2018-11-04T14:20:55.913Z,70.88
2018-11-04T14:22:05.531Z,71.03
2018-11-04T14:23:14.881Z,71.07
2018-11-04T14:24:25.048Z,70.88
2018-11-04T14:25:34.119Z,70.97
2018-11-04T14:26:44.025Z,71.07
2018-11-04T14:27:54.189Z,71.07
2018-11-04T14:29:04.080Z,70.59
2018-11-04T14:30:13.990Z,71.07
2018-11-04T14:31:24.173Z,71.26
2018-11-04T14:32:34.089Z,71.17
2018-11-04T14:33:43.986Z,71.26
2018-11-04T14:34:53.335Z,71.07
2018-11-04T14:36:03.496Z,71.17
2018-11-04T14:37:13.399Z,71.17
2018-11-04T14:38:23.295Z,71.26
2018-11-04T14:39:32.917Z,71.17
2018-11-04T14:40:42.539Z,70.5
2018-11-04T14:41:52.155Z,70.69
2018-11-04T14:43:02.050Z,70.4
2018-11-04T14:44:11.391Z,70.69
2018-11-04T14:45:21.333Z,70.4
2018-11-04T14:46:31.276Z,70.47
2018-11-04T14:47:41.164Z,70.31
2018-11-04T14:48:50.791Z,70.5
2018-11-04T14:49:59.864Z,70.59
2018-11-04T14:51:09.752Z,70.78
2018-11-04T14:52:19.145Z,70.69
2018-11-04T14:53:29.307Z,70.78
2018-11-04T14:54:38.664Z,70.69
2018-11-04T14:55:47.738Z,70.59
2018-11-04T14:56:57.367Z,70.59
2018-11-04T14:58:07.078Z,70.69
2018-11-04T14:59:17.371Z,70.12
2018-11-04T15:00:27.000Z,70.12
2018-11-04T15:01:37.028Z,70.02
2018-11-04T15:02:47.845Z,70.12